Terminal Aerodrome Forecast
Issued by NWS Charleston, WV

Home | Current Version | Previous Version | Text Only | Print | Product List | Glossary On
Versions: 1 2 3 4 5 6 7 8 9 10 11 12 13 14 15 16 17 18 19 20 21 22 23 24 25 26 27 28
000
FTUS41 KRLX 220500 AAB
TAFEKN
TAF AMD
KEKN 220501Z 2205/2224 31005KT 6SM -SHRA BR BKN015 OVC025
      TEMPO 2205/2206 4SM -SHRA BR SCT004 BKN008 OVC015
     FM220900 30004KT 6SM -SHRA BR OVC012
      TEMPO 2209/2212 BKN007
     FM221200 32005KT P6SM OVC010
     FM221600 31006KT P6SM OVC015=

USA.gov is the U.S. government's official web portal to all federal, state and local government web resources and services.